sensor_id;sensor_type;location;lat;lon;timestamp;P1;durP1;ratioP1;P2;durP2;ratioP2
45114;SDS011;30877;43.706;10.780;2022-09-09T00:00:55;10.20;;;2.75;;
45114;SDS011;30877;43.706;10.780;2022-09-09T00:03:32;9.57;;;3.35;;
45114;SDS011;30877;43.706;10.780;2022-09-09T00:06:09;10.15;;;2.85;;
45114;SDS011;30877;43.706;10.780;2022-09-09T00:08:47;9.02;;;3.30;;
45114;SDS011;30877;43.706;10.780;2022-09-09T00:11:24;10.95;;;2.78;;
45114;SDS011;30877;43.706;10.780;2022-09-09T00:14:14;12.00;;;2.90;;
45114;SDS011;30877;43.706;10.780;2022-09-09T00:19:20;9.35;;;3.15;;
45114;SDS011;30877;43.706;10.780;2022-09-09T00:21:55;11.90;;;3.10;;
45114;SDS011;30877;43.706;10.780;2022-09-09T00:24:32;10.95;;;3.05;;
45114;SDS011;30877;43.706;10.780;2022-09-09T00:27:06;6.47;;;2.78;;
45114;SDS011;30877;43.706;10.780;2022-09-09T00:29:42;8.75;;;3.05;;
45114;SDS011;30877;43.706;10.780;2022-09-09T00:32:14;8.35;;;3.10;;
45114;SDS011;30877;43.706;10.780;2022-09-09T00:34:48;9.48;;;3.28;;
45114;SDS011;30877;43.706;10.780;2022-09-09T00:37:20;12.00;;;3.20;;
45114;SDS011;30877;43.706;10.780;2022-09-09T00:39:53;8.00;;;2.88;;
45114;SDS011;30877;43.706;10.780;2022-09-09T00:42:25;10.80;;;3.25;;
45114;SDS011;30877;43.706;10.780;2022-09-09T00:44:59;9.15;;;3.00;;
45114;SDS011;30877;43.706;10.780;2022-09-09T00:47:40;10.93;;;3.75;;
45114;SDS011;30877;43.706;10.780;2022-09-09T00:50:16;9.77;;;3.25;;
45114;SDS011;30877;43.706;10.780;2022-09-09T00:53:05;14.68;;;3.92;;
45114;SDS011;30877;43.706;10.780;2022-09-09T00:55:47;11.13;;;3.40;;
45114;SDS011;30877;43.706;10.780;2022-09-09T00:58:19;10.32;;;3.35;;
45114;SDS011;30877;43.706;10.780;2022-09-09T01:00:49;12.68;;;4.07;;
45114;SDS011;30877;43.706;10.780;2022-09-09T01:03:22;11.07;;;3.70;;
45114;SDS011;30877;43.706;10.780;2022-09-09T01:05:57;6.93;;;3.35;;
45114;SDS011;30877;43.706;10.780;2022-09-09T01:11:33;12.27;;;3.20;;
45114;SDS011;30877;43.706;10.780;2022-09-09T01:14:15;11.93;;;4.03;;
45114;SDS011;30877;43.706;10.780;2022-09-09T01:16:52;13.02;;;3.70;;
45114;SDS011;30877;43.706;10.780;2022-09-09T01:19:25;12.13;;;4.20;;
45114;SDS011;30877;43.706;10.780;2022-09-09T01:22:08;7.90;;;3.88;;
45114;SDS011;30877;43.706;10.780;2022-09-09T01:25:01;10.30;;;3.88;;
45114;SDS011;30877;43.706;10.780;2022-09-09T01:28:12;10.73;;;4.00;;
45114;SDS011;30877;43.706;10.780;2022-09-09T01:30:43;10.80;;;3.58;;
45114;SDS011;30877;43.706;10.780;2022-09-09T01:33:15;10.05;;;3.97;;
45114;SDS011;30877;43.706;10.780;2022-09-09T01:35:45;15.13;;;4.20;;
45114;SDS011;30877;43.706;10.780;2022-09-09T01:38:24;11.05;;;4.43;;
45114;SDS011;30877;43.706;10.780;2022-09-09T01:40:53;10.70;;;3.53;;
45114;SDS011;30877;43.706;10.780;2022-09-09T01:43:29;7.25;;;3.70;;
45114;SDS011;30877;43.706;10.780;2022-09-09T01:45:58;9.02;;;3.90;;
45114;SDS011;30877;43.706;10.780;2022-09-09T01:48:29;13.60;;;4.30;;
45114;SDS011;30877;43.706;10.780;2022-09-09T01:51:02;9.15;;;3.60;;
45114;SDS011;30877;43.706;10.780;2022-09-09T01:53:30;9.38;;;4.88;;
45114;SDS011;30877;43.706;10.780;2022-09-09T01:56:13;9.57;;;3.60;;
45114;SDS011;30877;43.706;10.780;2022-09-09T01:58:59;10.35;;;3.92;;
45114;SDS011;30877;43.706;10.780;2022-09-09T02:04:30;12.43;;;4.22;;
45114;SDS011;30877;43.706;10.780;2022-09-09T02:10:20;11.63;;;3.85;;
45114;SDS011;30877;43.706;10.780;2022-09-09T02:13:04;10.30;;;3.92;;
45114;SDS011;30877;43.706;10.780;2022-09-09T02:15:39;8.18;;;3.45;;
45114;SDS011;30877;43.706;10.780;2022-09-09T02:18:11;8.95;;;3.95;;
45114;SDS011;30877;43.706;10.780;2022-09-09T02:20:41;6.68;;;3.38;;
45114;SDS011;30877;43.706;10.780;2022-09-09T02:23:11;9.25;;;3.40;;
45114;SDS011;30877;43.706;10.780;2022-09-09T02:25:43;10.85;;;4.15;;
45114;SDS011;30877;43.706;10.780;2022-09-09T02:30:49;10.32;;;3.25;;
45114;SDS011;30877;43.706;10.780;2022-09-09T02:33:30;10.80;;;3.80;;
45114;SDS011;30877;43.706;10.780;2022-09-09T02:36:04;9.20;;;3.17;;
45114;SDS011;30877;43.706;10.780;2022-09-09T02:38:36;8.80;;;3.47;;
45114;SDS011;30877;43.706;10.780;2022-09-09T02:41:11;12.55;;;3.30;;
45114;SDS011;30877;43.706;10.780;2022-09-09T02:43:39;9.90;;;3.50;;
45114;SDS011;30877;43.706;10.780;2022-09-09T02:46:15;6.57;;;3.30;;
45114;SDS011;30877;43.706;10.780;2022-09-09T02:48:59;7.95;;;3.42;;
45114;SDS011;30877;43.706;10.780;2022-09-09T02:51:35;9.48;;;3.30;;
45114;SDS011;30877;43.706;10.780;2022-09-09T02:54:16;9.88;;;3.30;;
45114;SDS011;30877;43.706;10.780;2022-09-09T02:56:49;12.40;;;3.65;;
45114;SDS011;30877;43.706;10.780;2022-09-09T02:59:28;8.88;;;2.80;;
45114;SDS011;30877;43.706;10.780;2022-09-09T03:01:59;9.10;;;3.90;;
45114;SDS011;30877;43.706;10.780;2022-09-09T03:04:28;10.45;;;3.40;;
45114;SDS011;30877;43.706;10.780;2022-09-09T03:06:57;10.88;;;3.38;;
45114;SDS011;30877;43.706;10.780;2022-09-09T03:09:25;7.18;;;2.80;;
45114;SDS011;30877;43.706;10.780;2022-09-09T03:11:54;8.98;;;4.07;;
45114;SDS011;30877;43.706;10.780;2022-09-09T03:14:23;5.00;;;2.92;;
45114;SDS011;30877;43.706;10.780;2022-09-09T03:16:54;6.25;;;3.10;;
45114;SDS011;30877;43.706;10.780;2022-09-09T03:19:26;13.18;;;4.00;;
45114;SDS011;30877;43.706;10.780;2022-09-09T03:21:54;12.05;;;4.05;;
45114;SDS011;30877;43.706;10.780;2022-09-09T03:24:22;8.75;;;2.92;;
45114;SDS011;30877;43.706;10.780;2022-09-09T03:26:50;10.25;;;3.25;;
45114;SDS011;30877;43.706;10.780;2022-09-09T03:29:18;8.05;;;2.88;;
45114;SDS011;30877;43.706;10.780;2022-09-09T03:31:47;10.25;;;3.83;;
45114;SDS011;30877;43.706;10.780;2022-09-09T03:34:15;6.60;;;3.28;;
45114;SDS011;30877;43.706;10.780;2022-09-09T03:36:44;8.85;;;3.75;;
45114;SDS011;30877;43.706;10.780;2022-09-09T03:39:13;8.00;;;3.38;;
45114;SDS011;30877;43.706;10.780;2022-09-09T03:41:42;8.65;;;3.40;;
45114;SDS011;30877;43.706;10.780;2022-09-09T03:44:13;6.82;;;2.90;;
45114;SDS011;30877;43.706;10.780;2022-09-09T03:46:42;8.85;;;3.13;;
45114;SDS011;30877;43.706;10.780;2022-09-09T03:49:10;6.60;;;2.78;;
45114;SDS011;30877;43.706;10.780;2022-09-09T03:51:38;8.27;;;3.50;;
45114;SDS011;30877;43.706;10.780;2022-09-09T03:54:10;12.70;;;3.63;;
45114;SDS011;30877;43.706;10.780;2022-09-09T03:56:38;10.52;;;4.32;;
45114;SDS011;30877;43.706;10.780;2022-09-09T03:59:11;8.95;;;4.32;;
45114;SDS011;30877;43.706;10.780;2022-09-09T04:01:41;11.38;;;4.07;;
45114;SDS011;30877;43.706;10.780;2022-09-09T04:04:09;10.77;;;4.35;;
45114;SDS011;30877;43.706;10.780;2022-09-09T04:06:39;10.07;;;3.65;;
45114;SDS011;30877;43.706;10.780;2022-09-09T04:09:07;8.73;;;4.18;;
45114;SDS011;30877;43.706;10.780;2022-09-09T04:11:38;14.48;;;4.30;;
45114;SDS011;30877;43.706;10.780;2022-09-09T04:14:07;14.50;;;5.18;;
45114;SDS011;30877;43.706;10.780;2022-09-09T04:16:36;12.55;;;5.18;;
45114;SDS011;30877;43.706;10.780;2022-09-09T04:19:04;15.18;;;6.25;;
45114;SDS011;30877;43.706;10.780;2022-09-09T04:21:35;18.48;;;6.55;;
45114;SDS011;30877;43.706;10.780;2022-09-09T04:24:03;17.15;;;6.78;;
45114;SDS011;30877;43.706;10.780;2022-09-09T04:26:31;14.05;;;5.45;;
45114;SDS011;30877;43.706;10.780;2022-09-09T04:29:01;13.60;;;6.10;;
45114;SDS011;30877;43.706;10.780;2022-09-09T04:31:30;21.70;;;7.20;;
45114;SDS011;30877;43.706;10.780;2022-09-09T04:33:58;19.75;;;6.45;;
45114;SDS011;30877;43.706;10.780;2022-09-09T04:36:32;10.52;;;5.57;;
45114;SDS011;30877;43.706;10.780;2022-09-09T04:39:03;12.27;;;6.18;;
45114;SDS011;30877;43.706;10.780;2022-09-09T04:41:31;13.80;;;6.20;;
45114;SDS011;30877;43.706;10.780;2022-09-09T04:44:01;10.90;;;5.55;;
45114;SDS011;30877;43.706;10.780;2022-09-09T04:46:31;7.80;;;4.95;;
45114;SDS011;30877;43.706;10.780;2022-09-09T04:49:01;6.72;;;4.80;;
45114;SDS011;30877;43.706;10.780;2022-09-09T04:51:32;11.88;;;4.95;;
45114;SDS011;30877;43.706;10.780;2022-09-09T04:54:01;8.93;;;4.68;;
45114;SDS011;30877;43.706;10.780;2022-09-09T04:56:30;8.80;;;5.38;;
45114;SDS011;30877;43.706;10.780;2022-09-09T04:59:01;8.43;;;4.72;;
45114;SDS011;30877;43.706;10.780;2022-09-09T05:01:37;6.78;;;4.05;;
45114;SDS011;30877;43.706;10.780;2022-09-09T05:04:05;8.48;;;3.88;;
45114;SDS011;30877;43.706;10.780;2022-09-09T05:06:33;6.40;;;3.63;;
45114;SDS011;30877;43.706;10.780;2022-09-09T05:09:04;4.78;;;3.47;;
45114;SDS011;30877;43.706;10.780;2022-09-09T05:11:32;3.95;;;3.42;;
45114;SDS011;30877;43.706;10.780;2022-09-09T05:14:27;6.25;;;3.50;;
45114;SDS011;30877;43.706;10.780;2022-09-09T05:16:55;7.68;;;3.83;;
45114;SDS011;30877;43.706;10.780;2022-09-09T05:19:23;8.82;;;3.88;;
45114;SDS011;30877;43.706;10.780;2022-09-09T05:21:52;5.35;;;3.40;;
45114;SDS011;30877;43.706;10.780;2022-09-09T05:24:26;6.07;;;3.28;;
45114;SDS011;30877;43.706;10.780;2022-09-09T05:26:57;6.07;;;3.72;;
45114;SDS011;30877;43.706;10.780;2022-09-09T05:29:28;7.85;;;3.50;;
45114;SDS011;30877;43.706;10.780;2022-09-09T05:31:56;3.78;;;3.40;;
45114;SDS011;30877;43.706;10.780;2022-09-09T05:34:24;4.97;;;3.78;;
45114;SDS011;30877;43.706;10.780;2022-09-09T05:36:54;10.13;;;4.38;;
45114;SDS011;30877;43.706;10.780;2022-09-09T05:39:24;6.97;;;4.20;;
45114;SDS011;30877;43.706;10.780;2022-09-09T05:41:52;8.60;;;5.03;;
45114;SDS011;30877;43.706;10.780;2022-09-09T05:44:19;8.30;;;5.40;;
45114;SDS011;30877;43.706;10.780;2022-09-09T05:46:49;7.35;;;4.78;;
45114;SDS011;30877;43.706;10.780;2022-09-09T05:49:17;5.82;;;3.08;;
45114;SDS011;30877;43.706;10.780;2022-09-09T05:51:47;5.47;;;2.92;;
45114;SDS011;30877;43.706;10.780;2022-09-09T05:54:17;4.43;;;2.70;;
45114;SDS011;30877;43.706;10.780;2022-09-09T05:56:48;7.97;;;3.80;;
45114;SDS011;30877;43.706;10.780;2022-09-09T05:59:18;6.68;;;4.03;;
45114;SDS011;30877;43.706;10.780;2022-09-09T06:01:46;6.00;;;3.47;;
45114;SDS011;30877;43.706;10.780;2022-09-09T06:04:24;4.10;;;2.85;;
45114;SDS011;30877;43.706;10.780;2022-09-09T06:06:53;3.38;;;2.70;;
45114;SDS011;30877;43.706;10.780;2022-09-09T06:09:22;4.90;;;2.75;;
45114;SDS011;30877;43.706;10.780;2022-09-09T06:11:50;3.90;;;2.58;;
45114;SDS011;30877;43.706;10.780;2022-09-09T06:14:20;4.28;;;3.50;;
45114;SDS011;30877;43.706;10.780;2022-09-09T06:16:52;4.47;;;3.35;;
45114;SDS011;30877;43.706;10.780;2022-09-09T06:19:22;4.72;;;3.25;;
45114;SDS011;30877;43.706;10.780;2022-09-09T06:21:55;6.70;;;3.95;;
45114;SDS011;30877;43.706;10.780;2022-09-09T06:24:23;3.38;;;3.08;;
45114;SDS011;30877;43.706;10.780;2022-09-09T06:26:51;5.88;;;3.03;;
45114;SDS011;30877;43.706;10.780;2022-09-09T06:29:25;2.92;;;2.45;;
45114;SDS011;30877;43.706;10.780;2022-09-09T06:31:55;4.03;;;2.65;;
45114;SDS011;30877;43.706;10.780;2022-09-09T06:34:25;4.43;;;2.53;;
45114;SDS011;30877;43.706;10.780;2022-09-09T06:36:56;6.70;;;2.55;;
45114;SDS011;30877;43.706;10.780;2022-09-09T06:39:31;5.40;;;2.50;;
45114;SDS011;30877;43.706;10.780;2022-09-09T06:41:59;5.10;;;2.72;;
45114;SDS011;30877;43.706;10.780;2022-09-09T06:44:45;5.78;;;2.40;;
45114;SDS011;30877;43.706;10.780;2022-09-09T06:47:29;3.90;;;2.47;;
45114;SDS011;30877;43.706;10.780;2022-09-09T06:49:57;5.85;;;2.60;;
45114;SDS011;30877;43.706;10.780;2022-09-09T06:52:26;7.43;;;2.83;;
45114;SDS011;30877;43.706;10.780;2022-09-09T06:54:55;6.63;;;2.50;;
45114;SDS011;30877;43.706;10.780;2022-09-09T06:57:25;5.68;;;2.25;;
45114;SDS011;30877;43.706;10.780;2022-09-09T07:00:08;5.15;;;2.38;;
45114;SDS011;30877;43.706;10.780;2022-09-09T07:02:38;7.55;;;2.22;;
45114;SDS011;30877;43.706;10.780;2022-09-09T07:05:09;9.32;;;2.38;;
45114;SDS011;30877;43.706;10.780;2022-09-09T07:07:39;6.72;;;2.17;;
45114;SDS011;30877;43.706;10.780;2022-09-09T07:10:10;5.47;;;2.55;;
45114;SDS011;30877;43.706;10.780;2022-09-09T07:12:39;10.38;;;2.80;;
45114;SDS011;30877;43.706;10.780;2022-09-09T07:15:09;4.25;;;2.42;;
45114;SDS011;30877;43.706;10.780;2022-09-09T07:17:43;8.20;;;2.67;;
45114;SDS011;30877;43.706;10.780;2022-09-09T07:20:12;8.38;;;2.80;;
45114;SDS011;30877;43.706;10.780;2022-09-09T07:22:41;11.10;;;3.03;;
45114;SDS011;30877;43.706;10.780;2022-09-09T07:25:10;10.90;;;3.28;;
45114;SDS011;30877;43.706;10.780;2022-09-09T07:27:38;8.85;;;2.78;;
45114;SDS011;30877;43.706;10.780;2022-09-09T07:30:09;11.65;;;4.30;;
45114;SDS011;30877;43.706;10.780;2022-09-09T07:32:48;14.18;;;5.03;;
45114;SDS011;30877;43.706;10.780;2022-09-09T07:35:18;17.38;;;4.75;;
45114;SDS011;30877;43.706;10.780;2022-09-09T07:37:47;14.07;;;4.50;;
45114;SDS011;30877;43.706;10.780;2022-09-09T07:40:19;10.23;;;4.22;;
45114;SDS011;30877;43.706;10.780;2022-09-09T07:42:49;11.23;;;3.65;;
45114;SDS011;30877;43.706;10.780;2022-09-09T07:45:17;10.38;;;3.28;;
45114;SDS011;30877;43.706;10.780;2022-09-09T07:47:47;10.05;;;3.17;;
45114;SDS011;30877;43.706;10.780;2022-09-09T07:50:17;8.60;;;1.70;;
45114;SDS011;30877;43.706;10.780;2022-09-09T07:52:46;6.90;;;1.45;;
45114;SDS011;30877;43.706;10.780;2022-09-09T07:55:14;6.22;;;1.60;;
45114;SDS011;30877;43.706;10.780;2022-09-09T07:57:43;5.57;;;1.25;;
45114;SDS011;30877;43.706;10.780;2022-09-09T08:00:12;6.18;;;1.13;;
45114;SDS011;30877;43.706;10.780;2022-09-09T08:02:49;7.30;;;1.20;;
45114;SDS011;30877;43.706;10.780;2022-09-09T08:05:17;5.68;;;1.20;;
45114;SDS011;30877;43.706;10.780;2022-09-09T08:07:45;7.50;;;1.40;;
45114;SDS011;30877;43.706;10.780;2022-09-09T08:10:14;6.72;;;1.13;;
45114;SDS011;30877;43.706;10.780;2022-09-09T08:12:45;6.32;;;1.42;;
45114;SDS011;30877;43.706;10.780;2022-09-09T08:15:33;5.45;;;0.95;;
45114;SDS011;30877;43.706;10.780;2022-09-09T08:18:04;8.13;;;1.00;;
45114;SDS011;30877;43.706;10.780;2022-09-09T08:20:35;5.95;;;1.40;;
45114;SDS011;30877;43.706;10.780;2022-09-09T08:23:05;12.05;;;1.60;;
45114;SDS011;30877;43.706;10.780;2022-09-09T08:25:34;6.80;;;1.38;;
45114;SDS011;30877;43.706;10.780;2022-09-09T08:28:03;11.68;;;1.40;;
45114;SDS011;30877;43.706;10.780;2022-09-09T08:30:32;8.00;;;1.20;;
45114;SDS011;30877;43.706;10.780;2022-09-09T08:33:00;5.45;;;1.05;;
45114;SDS011;30877;43.706;10.780;2022-09-09T08:35:31;6.57;;;1.10;;
45114;SDS011;30877;43.706;10.780;2022-09-09T08:38:01;5.20;;;1.30;;
45114;SDS011;30877;43.706;10.780;2022-09-09T08:40:37;4.32;;;0.82;;
45114;SDS011;30877;43.706;10.780;2022-09-09T08:45:42;8.57;;;1.38;;
45114;SDS011;30877;43.706;10.780;2022-09-09T08:48:22;7.30;;;1.20;;
45114;SDS011;30877;43.706;10.780;2022-09-09T08:51:11;5.45;;;1.55;;
45114;SDS011;30877;43.706;10.780;2022-09-09T08:53:42;6.32;;;1.50;;
45114;SDS011;30877;43.706;10.780;2022-09-09T08:56:16;7.43;;;1.35;;
45114;SDS011;30877;43.706;10.780;2022-09-09T09:01:48;6.47;;;1.25;;
45114;SDS011;30877;43.706;10.780;2022-09-09T09:04:50;7.22;;;1.08;;
45114;SDS011;30877;43.706;10.780;2022-09-09T09:07:34;6.43;;;1.10;;
45114;SDS011;30877;43.706;10.780;2022-09-09T09:10:12;4.90;;;1.00;;
45114;SDS011;30877;43.706;10.780;2022-09-09T09:13:11;5.20;;;0.98;;
45114;SDS011;30877;43.706;10.780;2022-09-09T09:15:49;3.35;;;0.70;;
45114;SDS011;30877;43.706;10.780;2022-09-09T09:18:23;8.50;;;1.55;;
45114;SDS011;30877;43.706;10.780;2022-09-09T09:20:55;4.20;;;1.00;;
45114;SDS011;30877;43.706;10.780;2022-09-09T09:23:34;8.23;;;1.30;;
45114;SDS011;30877;43.706;10.780;2022-09-09T09:26:11;7.22;;;1.50;;
45114;SDS011;30877;43.706;10.780;2022-09-09T09:28:41;6.43;;;1.00;;
45114;SDS011;30877;43.706;10.780;2022-09-09T09:31:14;4.80;;;0.98;;
45114;SDS011;30877;43.706;10.780;2022-09-09T09:33:47;3.17;;;0.85;;
45114;SDS011;30877;43.706;10.780;2022-09-09T09:36:20;7.00;;;1.20;;
45114;SDS011;30877;43.706;10.780;2022-09-09T09:38:54;6.10;;;1.20;;
45114;SDS011;30877;43.706;10.780;2022-09-09T09:41:45;5.47;;;1.30;;
45114;SDS011;30877;43.706;10.780;2022-09-09T09:44:22;5.57;;;1.08;;
45114;SDS011;30877;43.706;10.780;2022-09-09T09:46:52;7.47;;;1.85;;
45114;SDS011;30877;43.706;10.780;2022-09-09T09:49:32;6.30;;;1.10;;
45114;SDS011;30877;43.706;10.780;2022-09-09T09:52:01;5.07;;;1.00;;
45114;SDS011;30877;43.706;10.780;2022-09-09T09:54:32;6.35;;;1.30;;
45114;SDS011;30877;43.706;10.780;2022-09-09T09:57:08;7.50;;;1.25;;
45114;SDS011;30877;43.706;10.780;2022-09-09T09:59:40;4.82;;;0.90;;
45114;SDS011;30877;43.706;10.780;2022-09-09T10:02:19;10.00;;;1.77;;
45114;SDS011;30877;43.706;10.780;2022-09-09T10:05:03;6.95;;;0.98;;
45114;SDS011;30877;43.706;10.780;2022-09-09T10:07:35;4.93;;;1.05;;
45114;SDS011;30877;43.706;10.780;2022-09-09T10:10:08;5.43;;;0.88;;
45114;SDS011;30877;43.706;10.780;2022-09-09T10:12:44;5.28;;;1.00;;
45114;SDS011;30877;43.706;10.780;2022-09-09T10:15:30;5.63;;;1.30;;
45114;SDS011;30877;43.706;10.780;2022-09-09T10:18:08;6.68;;;1.10;;
45114;SDS011;30877;43.706;10.780;2022-09-09T10:20:51;8.20;;;1.30;;
45114;SDS011;30877;43.706;10.780;2022-09-09T10:23:34;4.18;;;0.80;;
45114;SDS011;30877;43.706;10.780;2022-09-09T10:26:26;4.72;;;1.05;;
45114;SDS011;30877;43.706;10.780;2022-09-09T10:32:05;7.10;;;1.38;;
45114;SDS011;30877;43.706;10.780;2022-09-09T10:34:55;5.93;;;1.05;;
45114;SDS011;30877;43.706;10.780;2022-09-09T10:37:35;9.05;;;1.45;;
45114;SDS011;30877;43.706;10.780;2022-09-09T10:40:17;6.25;;;0.85;;
45114;SDS011;30877;43.706;10.780;2022-09-09T10:42:58;5.30;;;1.00;;
45114;SDS011;30877;43.706;10.780;2022-09-09T10:45:41;6.28;;;1.30;;
45114;SDS011;30877;43.706;10.780;2022-09-09T10:48:23;7.18;;;1.23;;
45114;SDS011;30877;43.706;10.780;2022-09-09T10:51:02;5.18;;;1.23;;
45114;SDS011;30877;43.706;10.780;2022-09-09T10:53:47;4.77;;;1.47;;
45114;SDS011;30877;43.706;10.780;2022-09-09T10:56:25;8.25;;;1.10;;
45114;SDS011;30877;43.706;10.780;2022-09-09T10:58:58;5.30;;;0.90;;
45114;SDS011;30877;43.706;10.780;2022-09-09T11:01:32;6.90;;;1.00;;
45114;SDS011;30877;43.706;10.780;2022-09-09T11:04:09;10.95;;;1.25;;
45114;SDS011;30877;43.706;10.780;2022-09-09T11:06:44;5.07;;;1.10;;
45114;SDS011;30877;43.706;10.780;2022-09-09T11:09:19;6.75;;;1.13;;
45114;SDS011;30877;43.706;10.780;2022-09-09T11:11:53;5.50;;;1.13;;
45114;SDS011;30877;43.706;10.780;2022-09-09T11:14:27;5.28;;;0.90;;
45114;SDS011;30877;43.706;10.780;2022-09-09T11:17:04;6.30;;;1.10;;
45114;SDS011;30877;43.706;10.780;2022-09-09T11:19:38;8.80;;;1.58;;
45114;SDS011;30877;43.706;10.780;2022-09-09T11:22:08;3.75;;;0.90;;
45114;SDS011;30877;43.706;10.780;2022-09-09T11:24:47;7.13;;;1.35;;
45114;SDS011;30877;43.706;10.780;2022-09-09T11:27:19;5.18;;;1.25;;
45114;SDS011;30877;43.706;10.780;2022-09-09T11:30:12;5.50;;;1.20;;
45114;SDS011;30877;43.706;10.780;2022-09-09T11:33:18;5.07;;;1.10;;
45114;SDS011;30877;43.706;10.780;2022-09-09T11:36:08;6.78;;;1.23;;
45114;SDS011;30877;43.706;10.780;2022-09-09T11:38:52;5.63;;;0.90;;
45114;SDS011;30877;43.706;10.780;2022-09-09T11:41:32;6.03;;;1.50;;
45114;SDS011;30877;43.706;10.780;2022-09-09T11:44:10;7.75;;;1.63;;
45114;SDS011;30877;43.706;10.780;2022-09-09T11:46:42;4.20;;;0.90;;
45114;SDS011;30877;43.706;10.780;2022-09-09T11:49:25;3.30;;;0.93;;
45114;SDS011;30877;43.706;10.780;2022-09-09T11:51:56;7.20;;;1.60;;
45114;SDS011;30877;43.706;10.780;2022-09-09T11:54:27;4.18;;;1.00;;
45114;SDS011;30877;43.706;10.780;2022-09-09T11:56:59;8.45;;;0.75;;
45114;SDS011;30877;43.706;10.780;2022-09-09T11:59:30;3.30;;;0.90;;
45114;SDS011;30877;43.706;10.780;2022-09-09T12:02:01;4.93;;;1.13;;
45114;SDS011;30877;43.706;10.780;2022-09-09T12:04:38;3.17;;;1.10;;
45114;SDS011;30877;43.706;10.780;2022-09-09T12:07:24;4.45;;;1.08;;
45114;SDS011;30877;43.706;10.780;2022-09-09T12:10:01;5.22;;;0.90;;
45114;SDS011;30877;43.706;10.780;2022-09-09T12:12:32;6.30;;;1.02;;
45114;SDS011;30877;43.706;10.780;2022-09-09T12:15:20;5.13;;;0.95;;
45114;SDS011;30877;43.706;10.780;2022-09-09T12:17:52;2.78;;;1.00;;
45114;SDS011;30877;43.706;10.780;2022-09-09T12:20:31;7.20;;;1.25;;
45114;SDS011;30877;43.706;10.780;2022-09-09T12:23:10;5.07;;;0.77;;
45114;SDS011;30877;43.706;10.780;2022-09-09T12:29:00;4.18;;;1.10;;
45114;SDS011;30877;43.706;10.780;2022-09-09T12:31:38;4.50;;;1.10;;
45114;SDS011;30877;43.706;10.780;2022-09-09T12:34:14;7.20;;;1.10;;
45114;SDS011;30877;43.706;10.780;2022-09-09T12:36:45;7.75;;;1.52;;
45114;SDS011;30877;43.706;10.780;2022-09-09T12:39:21;5.18;;;1.20;;
45114;SDS011;30877;43.706;10.780;2022-09-09T12:41:54;4.15;;;1.00;;
45114;SDS011;30877;43.706;10.780;2022-09-09T12:44:24;6.15;;;1.35;;
45114;SDS011;30877;43.706;10.780;2022-09-09T12:46:55;4.13;;;1.00;;
45114;SDS011;30877;43.706;10.780;2022-09-09T12:49:29;6.57;;;1.10;;
45114;SDS011;30877;43.706;10.780;2022-09-09T12:52:02;2.33;;;0.85;;
45114;SDS011;30877;43.706;10.780;2022-09-09T12:54:33;4.45;;;1.42;;
45114;SDS011;30877;43.706;10.780;2022-09-09T12:57:03;6.25;;;1.33;;
45114;SDS011;30877;43.706;10.780;2022-09-09T12:59:36;5.18;;;1.08;;
45114;SDS011;30877;43.706;10.780;2022-09-09T13:02:14;2.92;;;0.90;;
45114;SDS011;30877;43.706;10.780;2022-09-09T13:04:48;2.95;;;0.88;;
45114;SDS011;30877;43.706;10.780;2022-09-09T13:07:17;7.38;;;0.85;;
45114;SDS011;30877;43.706;10.780;2022-09-09T13:09:47;4.13;;;0.90;;
45114;SDS011;30877;43.706;10.780;2022-09-09T13:12:17;6.57;;;1.13;;
45114;SDS011;30877;43.706;10.780;2022-09-09T13:14:46;5.70;;;0.85;;
45114;SDS011;30877;43.706;10.780;2022-09-09T13:17:19;3.65;;;0.98;;
45114;SDS011;30877;43.706;10.780;2022-09-09T13:19:51;3.88;;;0.77;;
45114;SDS011;30877;43.706;10.780;2022-09-09T13:22:21;5.65;;;1.05;;
45114;SDS011;30877;43.706;10.780;2022-09-09T13:25:04;4.47;;;1.17;;
45114;SDS011;30877;43.706;10.780;2022-09-09T13:27:51;3.03;;;0.98;;
45114;SDS011;30877;43.706;10.780;2022-09-09T13:30:22;5.63;;;0.82;;
45114;SDS011;30877;43.706;10.780;2022-09-09T13:33:05;3.83;;;1.13;;
45114;SDS011;30877;43.706;10.780;2022-09-09T13:35:47;5.07;;;1.00;;
45114;SDS011;30877;43.706;10.780;2022-09-09T13:38:17;2.63;;;0.47;;
45114;SDS011;30877;43.706;10.780;2022-09-09T13:40:52;4.40;;;0.88;;
45114;SDS011;30877;43.706;10.780;2022-09-09T13:43:22;3.97;;;0.80;;
45114;SDS011;30877;43.706;10.780;2022-09-09T13:45:52;3.28;;;0.60;;
45114;SDS011;30877;43.706;10.780;2022-09-09T13:48:25;2.85;;;0.55;;
45114;SDS011;30877;43.706;10.780;2022-09-09T13:50:55;7.32;;;1.08;;
45114;SDS011;30877;43.706;10.780;2022-09-09T13:53:25;3.00;;;0.60;;
45114;SDS011;30877;43.706;10.780;2022-09-09T13:55:53;4.00;;;0.80;;
45114;SDS011;30877;43.706;10.780;2022-09-09T13:58:22;4.30;;;1.45;;
45114;SDS011;30877;43.706;10.780;2022-09-09T14:00:52;4.13;;;0.80;;
45114;SDS011;30877;43.706;10.780;2022-09-09T14:03:21;3.70;;;0.65;;
45114;SDS011;30877;43.706;10.780;2022-09-09T14:05:49;2.85;;;0.75;;
45114;SDS011;30877;43.706;10.780;2022-09-09T14:08:23;1.98;;;0.60;;
45114;SDS011;30877;43.706;10.780;2022-09-09T14:10:53;2.95;;;1.10;;
45114;SDS011;30877;43.706;10.780;2022-09-09T14:13:22;4.85;;;1.00;;
45114;SDS011;30877;43.706;10.780;2022-09-09T14:15:50;3.88;;;0.63;;
45114;SDS011;30877;43.706;10.780;2022-09-09T14:18:18;3.22;;;0.70;;
45114;SDS011;30877;43.706;10.780;2022-09-09T14:20:46;3.97;;;0.85;;
45114;SDS011;30877;43.706;10.780;2022-09-09T14:23:14;2.30;;;0.77;;
45114;SDS011;30877;43.706;10.780;2022-09-09T14:25:44;2.60;;;0.80;;
45114;SDS011;30877;43.706;10.780;2022-09-09T14:28:13;3.92;;;0.63;;
45114;SDS011;30877;43.706;10.780;2022-09-09T14:30:42;2.47;;;0.60;;
45114;SDS011;30877;43.706;10.780;2022-09-09T14:33:12;3.58;;;0.52;;
45114;SDS011;30877;43.706;10.780;2022-09-09T14:35:41;1.60;;;0.50;;
45114;SDS011;30877;43.706;10.780;2022-09-09T14:38:13;3.20;;;0.82;;
45114;SDS011;30877;43.706;10.780;2022-09-09T14:40:46;2.03;;;0.47;;
45114;SDS011;30877;43.706;10.780;2022-09-09T14:43:14;2.42;;;0.70;;
45114;SDS011;30877;43.706;10.780;2022-09-09T14:45:42;4.68;;;0.77;;
45114;SDS011;30877;43.706;10.780;2022-09-09T14:48:11;3.20;;;0.60;;
45114;SDS011;30877;43.706;10.780;2022-09-09T14:50:39;3.35;;;0.60;;
45114;SDS011;30877;43.706;10.780;2022-09-09T14:53:07;3.42;;;0.40;;
45114;SDS011;30877;43.706;10.780;2022-09-09T14:55:36;2.45;;;0.50;;
45114;SDS011;30877;43.706;10.780;2022-09-09T14:58:06;3.17;;;0.40;;
45114;SDS011;30877;43.706;10.780;2022-09-09T15:00:33;3.53;;;0.60;;
45114;SDS011;30877;43.706;10.780;2022-09-09T15:03:01;3.53;;;0.80;;
45114;SDS011;30877;43.706;10.780;2022-09-09T15:05:30;2.22;;;0.40;;
45114;SDS011;30877;43.706;10.780;2022-09-09T15:07:58;1.63;;;0.30;;
45114;SDS011;30877;43.706;10.780;2022-09-09T15:10:27;2.63;;;0.40;;
45114;SDS011;30877;43.706;10.780;2022-09-09T15:12:54;2.58;;;0.30;;
45114;SDS011;30877;43.706;10.780;2022-09-09T15:15:25;3.15;;;0.50;;
45114;SDS011;30877;43.706;10.780;2022-09-09T15:17:53;4.95;;;0.60;;
45114;SDS011;30877;43.706;10.780;2022-09-09T15:20:21;1.83;;;0.65;;
45114;SDS011;30877;43.706;10.780;2022-09-09T15:22:49;6.15;;;0.77;;
45114;SDS011;30877;43.706;10.780;2022-09-09T15:25:19;3.30;;;0.60;;
45114;SDS011;30877;43.706;10.780;2022-09-09T15:27:48;5.45;;;0.68;;
45114;SDS011;30877;43.706;10.780;2022-09-09T15:30:16;7.78;;;1.20;;
45114;SDS011;30877;43.706;10.780;2022-09-09T15:32:45;4.95;;;1.02;;